Time;durP1;ratioP1;P1;durP2;ratioP2;P2;SDS_P1;SDS_P2;PMS_P1;PMS_P2;Temp;Humidity;BMP_temperature;BMP_pressure;BME280_temperature;BME280_humidity;BME280_pressure;Samples;Min_cycle;Max_cycle;Signal;HPM_P1;HPM_P2
2022/01/28 00:00:18;;;;;;;4.13;1.30;;;21.50;46.90;;;;;;5103856;28;20560;-71
2022/01/28 00:05:17;;;;;;;5.55;1.63;;;21.50;46.90;;;;;;5101918;28;20036;-71
2022/01/28 00:07:44;;;;;;;3.45;1.25;;;21.50;46.80;;;;;;5097901;28;20039;-70
2022/01/28 00:10:09;;;;;;;7.00;1.48;;;21.50;46.90;;;;;;5114654;27;20167;-70
2022/01/28 00:12:41;;;;;;;4.70;1.50;;;21.50;46.80;;;;;;5092952;28;20130;-70
2022/01/28 00:15:18;;;;;;;5.50;1.60;;;21.50;46.80;;;;;;5120003;27;20050;-70
2022/01/28 00:18:14;;;;;;;5.70;1.50;;;21.50;46.90;;;;;;5096389;28;20081;-71
2022/01/28 00:39:22;;;;;;;5.65;1.77;;;21.60;46.80;;;;;;5096939;28;20580;-70
2022/01/28 00:41:47;;;;;;;5.93;1.52;;;21.60;46.70;;;;;;5091424;28;20047;-70
2022/01/28 00:44:13;;;;;;;3.88;1.30;;;21.60;46.70;;;;;;5105398;28;20040;-70
2022/01/28 00:46:38;;;;;;;3.53;1.40;;;21.60;46.70;;;;;;5127469;27;20045;-70
2022/01/28 00:49:04;;;;;;;7.97;1.70;;;21.60;46.70;;;;;;5074134;28;20058;-70
2022/01/28 00:51:29;;;;;;;4.43;1.42;;;21.60;46.70;;;;;;5091509;28;20048;-70
2022/01/28 00:53:55;;;;;;;4.65;1.40;;;21.60;46.60;;;;;;5090957;28;20097;-70
2022/01/28 00:56:21;;;;;;;5.32;1.15;;;21.60;46.50;;;;;;5094714;28;20040;-70
2022/01/28 00:58:46;;;;;;;6.50;1.75;;;21.60;46.50;;;;;;5122655;27;20048;-70
2022/01/28 01:01:12;;;;;;;5.53;1.55;;;21.60;46.30;;;;;;5088517;28;20089;-69
2022/01/28 01:03:37;;;;;;;6.82;1.42;;;21.50;46.30;;;;;;5106571;28;20470;-70
2022/01/28 01:06:03;;;;;;;5.10;1.80;;;21.50;46.30;;;;;;5089222;28;20479;-70
2022/01/28 01:08:28;;;;;;;5.45;1.30;;;21.50;46.30;;;;;;5097883;28;20048;-70
2022/01/28 01:10:54;;;;;;;5.20;1.60;;;21.50;46.30;;;;;;5087567;28;20040;-70
2022/01/28 01:13:20;;;;;;;4.93;1.40;;;21.50;46.30;;;;;;5092516;28;20489;-70
2022/01/28 01:15:51;;;;;;;6.57;1.55;;;21.50;46.30;;;;;;5088582;28;20040;-70
2022/01/28 01:18:24;;;;;;;3.92;1.40;;;21.50;46.30;;;;;;5097431;28;20115;-70
2022/01/28 01:21:03;;;;;;;5.18;1.42;;;21.50;46.30;;;;;;5085015;28;20036;-70
2022/01/28 01:23:33;;;;;;;5.22;1.40;;;21.50;46.30;;;;;;5095204;28;20028;-70
2022/01/28 01:28:31;;;;;;;;;;;21.40;46.20;;;;;;5097265;28;20127;-70
2022/01/28 01:30:58;;;;;;;4.53;1.27;;;21.40;46.20;;;;;;5120793;27;19926;-70
2022/01/28 01:33:24;;;;;;;7.13;1.67;;;21.50;46.20;;;;;;5090735;28;20028;-71
2022/01/28 01:35:50;;;;;;;4.80;1.40;;;21.40;46.10;;;;;;5098862;28;20122;-68
2022/01/28 01:38:16;;;;;;;6.65;1.55;;;21.50;46.20;;;;;;5103681;28;20130;-69
2022/01/28 01:40:46;;;;;;;6.15;1.65;;;21.50;46.20;;;;;;5072828;28;20139;-70
2022/01/28 01:43:28;;;;;;;6.13;1.73;;;21.50;46.10;;;;;;5070346;28;20090;-70
2022/01/28 01:46:13;;;;;;;3.70;1.42;;;21.50;46.10;;;;;;5102636;28;20040;-70
2022/01/28 01:54:07;;;;;;;5.53;1.30;;;21.40;46.20;;;;;;5079700;28;20134;-70
2022/01/28 01:56:34;;;;;;;3.33;1.40;;;21.40;46.20;;;;;;5119026;27;20550;-70
2022/01/28 01:59:01;;;;;;;5.90;1.38;;;21.40;46.30;;;;;;5089799;28;20131;-71
2022/01/28 02:01:27;;;;;;;4.72;2.13;;;21.40;46.30;;;;;;5084620;28;20078;-70
2022/01/28 02:03:52;;;;;;;4.68;1.30;;;21.40;46.30;;;;;;5090761;28;20127;-69
2022/01/28 02:06:20;;;;;;;5.00;1.10;;;21.40;46.30;;;;;;5100554;28;20043;-70
2022/01/28 02:08:46;;;;;;;5.30;1.40;;;21.40;46.40;;;;;;5100179;28;20050;-69
2022/01/28 02:11:12;;;;;;;5.75;1.33;;;21.40;46.40;;;;;;5102450;28;20046;-70
2022/01/28 02:13:39;;;;;;;3.78;1.38;;;21.40;46.40;;;;;;5081248;28;20051;-69
2022/01/28 02:16:05;;;;;;;5.88;1.60;;;21.40;46.40;;;;;;5099588;28;20080;-69
2022/01/28 02:18:31;;;;;;;4.93;1.45;;;21.40;46.40;;;;;;5104335;28;20031;-69
2022/01/28 02:21:04;;;;;;;4.72;1.30;;;21.40;46.50;;;;;;5116819;27;20032;-73
2022/01/28 02:23:30;;;;;;;5.10;1.40;;;21.40;46.50;;;;;;5084054;28;20108;-71
2022/01/28 02:25:58;;;;;;;4.80;1.35;;;21.40;46.40;;;;;;5088866;28;20516;-71
2022/01/28 02:28:26;;;;;;;5.05;1.48;;;21.40;46.40;;;;;;5084160;28;20055;-70
2022/01/28 02:30:52;;;;;;;4.50;1.37;;;21.40;46.40;;;;;;5083499;28;20049;-71
2022/01/28 02:33:20;;;;;;;5.93;1.70;;;21.40;46.40;;;;;;5084622;28;20067;-71
2022/01/28 02:35:47;;;;;;;;;;;21.40;46.40;;;;;;5085705;28;20052;-71
2022/01/28 02:38:14;;;;;;;5.13;1.50;;;21.40;46.40;;;;;;5085932;28;20379;-72
2022/01/28 02:40:46;;;;;;;4.55;1.42;;;21.40;46.40;;;;;;5084214;28;20024;-72
2022/01/28 02:45:47;;;;;;;5.90;1.58;;;21.40;46.30;;;;;;5088843;28;20051;-71
2022/01/28 02:48:24;;;;;;;7.25;1.42;;;21.40;46.30;;;;;;5087453;28;20121;-71
2022/01/28 02:51:15;;;;;;;5.68;1.63;;;21.40;46.30;;;;;;5067277;28;20067;-71
2022/01/28 02:53:58;;;;;;;3.22;1.00;;;21.40;46.40;;;;;;5083243;28;20075;-71
2022/01/28 02:56:40;;;;;;;5.25;1.38;;;21.40;46.30;;;;;;5086621;28;20036;-71
2022/01/28 02:59:06;;;;;;;4.93;1.27;;;21.40;46.30;;;;;;5117806;27;20047;-71
2022/01/28 03:01:32;;;;;;;3.63;1.52;;;21.40;46.20;;;;;;5085666;28;20063;-71
2022/01/28 03:04:01;;;;;;;6.88;1.35;;;21.40;46.20;;;;;;5127660;27;20483;-71
2022/01/28 03:06:27;;;;;;;3.47;1.45;;;21.40;46.20;;;;;;5080774;28;20051;-71
2022/01/28 03:08:57;;;;;;;5.20;1.23;;;21.40;46.20;;;;;;5083679;28;20120;-71
2022/01/28 03:14:21;;;;;;;6.28;1.40;;;21.40;46.10;;;;;;5085061;28;20098;-71
2022/01/28 03:19:48;;;;;;;6.18;1.42;;;21.40;46.10;;;;;;5072303;28;20862;-71
2022/01/28 03:22:14;;;;;;;3.65;1.08;;;21.50;46.20;;;;;;5096517;28;20503;-71
2022/01/28 03:24:41;;;;;;;5.00;1.23;;;21.40;46.10;;;;;;5088927;28;20040;-71
2022/01/28 03:27:13;;;;;;;5.50;1.45;;;21.40;46.10;;;;;;5086187;28;20036;-71
2022/01/28 03:29:38;;;;;;;3.75;1.10;;;21.50;46.20;;;;;;5086208;28;20052;-71
2022/01/28 03:32:04;;;;;;;6.00;1.08;;;21.50;46.10;;;;;;5084341;28;20043;-71
2022/01/28 03:34:30;;;;;;;5.88;1.38;;;21.40;46.10;;;;;;5117222;27;20109;-71
2022/01/28 03:36:56;;;;;;;5.47;1.23;;;21.50;46.10;;;;;;5083234;28;20031;-71
2022/01/28 03:39:22;;;;;;;5.00;1.42;;;21.40;46.10;;;;;;5084336;28;20523;-71
2022/01/28 03:41:48;;;;;;;7.57;1.67;;;21.50;46.20;;;;;;5082721;28;20044;-71
2022/01/28 03:44:13;;;;;;;3.78;1.33;;;21.40;46.00;;;;;;5074919;28;20110;-71
2022/01/28 03:46:39;;;;;;;6.53;1.00;;;21.40;46.00;;;;;;5082815;28;20422;-71
2022/01/28 03:49:06;;;;;;;4.13;1.23;;;21.50;46.10;;;;;;5082828;28;20071;-71
2022/01/28 03:51:31;;;;;;;3.75;1.50;;;21.50;46.10;;;;;;5082217;28;20044;-70
2022/01/28 03:53:57;;;;;;;5.43;1.63;;;21.50;46.00;;;;;;5084929;28;20040;-71
2022/01/28 03:56:23;;;;;;;5.55;1.40;;;21.50;46.10;;;;;;5083847;28;20032;-71
2022/01/28 03:58:49;;;;;;;4.75;1.60;;;21.50;46.00;;;;;;5084590;28;20048;-71
2022/01/28 04:01:20;;;;;;;4.70;1.38;;;21.50;45.90;;;;;;5085699;28;20078;-71
2022/01/28 04:11:48;;;;;;;6.63;1.45;;;21.50;45.90;;;;;;5085516;28;20405;-71
2022/01/28 04:14:20;;;;;;;5.00;1.40;;;21.50;45.90;;;;;;5105403;28;20051;-71
2022/01/28 04:19:30;;;;;;;6.72;1.40;;;21.50;45.90;;;;;;5086345;28;20068;-71
2022/01/28 04:21:55;;;;;;;4.93;1.45;;;21.50;45.90;;;;;;5085724;28;20040;-70
2022/01/28 04:24:21;;;;;;;8.63;1.63;;;21.50;45.80;;;;;;5087497;28;20148;-71
2022/01/28 04:26:47;;;;;;;5.78;1.50;;;21.50;45.80;;;;;;5090404;28;20032;-71
2022/01/28 04:29:13;;;;;;;4.93;1.20;;;21.50;45.80;;;;;;5082390;28;20051;-71
2022/01/28 04:31:42;;;;;;;4.63;1.20;;;21.50;45.80;;;;;;5106830;28;20091;-70
2022/01/28 04:34:09;;;;;;;5.10;1.55;;;21.50;45.80;;;;;;5121746;27;20109;-71
2022/01/28 04:36:39;;;;;;;3.80;1.20;;;21.50;45.70;;;;;;5130555;27;20048;-71
2022/01/28 04:39:32;;;;;;;7.28;1.23;;;21.50;45.70;;;;;;5095709;28;20040;-69
2022/01/28 04:44:53;;;;;;;6.10;1.50;;;21.50;45.70;;;;;;5084556;28;19924;-71
2022/01/28 04:52:41;;;;;;;;;;;21.50;45.60;;;;;;5087330;28;20131;-70
2022/01/28 04:55:13;;;;;;;7.30;1.77;;;21.50;45.60;;;;;;5079927;28;20387;-72
2022/01/28 04:58:03;;;;;;;3.75;1.40;;;21.50;45.50;;;;;;5090198;28;20051;-71
2022/01/28 05:00:46;;;;;;;6.93;1.70;;;21.50;45.50;;;;;;5088863;28;20055;-71
2022/01/28 05:03:38;;;;;;;7.18;1.48;;;21.50;45.50;;;;;;5086005;28;20455;-71
2022/01/28 05:27:20;;;;;;;6.32;1.50;;;21.50;45.40;;;;;;5087139;28;20239;-71
2022/01/28 05:29:46;;;;;;;3.03;1.40;;;21.50;45.40;;;;;;5086905;28;20044;-71
2022/01/28 05:32:12;;;;;;;6.10;1.30;;;21.50;46.10;;;;;;5090020;28;20048;-71
2022/01/28 05:34:39;;;;;;;6.00;1.77;;;21.50;45.80;;;;;;5085354;28;20521;-71
2022/01/28 05:37:05;;;;;;;6.93;1.60;;;21.50;45.30;;;;;;5085520;28;20475;-71
2022/01/28 05:39:31;;;;;;;4.32;1.38;;;21.50;45.30;;;;;;5083487;28;20075;-71
2022/01/28 05:41:57;;;;;;;4.68;1.20;;;21.40;45.30;;;;;;5085333;28;20082;-71
2022/01/28 05:44:23;;;;;;;6.40;1.42;;;21.50;45.40;;;;;;5086743;28;20054;-71
2022/01/28 05:46:49;;;;;;;6.70;1.70;;;21.50;45.30;;;;;;5088134;28;20047;-71
2022/01/28 05:49:15;;;;;;;4.90;1.20;;;21.50;45.30;;;;;;5136394;27;20044;-71
2022/01/28 05:51:42;;;;;;;4.90;1.35;;;21.50;45.20;;;;;;5118646;27;20048;-71
2022/01/28 05:54:07;;;;;;;4.88;1.38;;;21.50;45.20;;;;;;5109293;27;20098;-71
2022/01/28 05:56:33;;;;;;;4.25;1.48;;;21.50;45.20;;;;;;5078833;28;20047;-71
2022/01/28 05:58:59;;;;;;;4.03;1.30;;;21.50;45.30;;;;;;5086183;28;20048;-71
2022/01/28 06:01:25;;;;;;;4.93;1.42;;;21.40;45.10;;;;;;5083679;28;20051;-71
2022/01/28 06:03:51;;;;;;;3.65;1.40;;;21.50;45.30;;;;;;5085073;28;20133;-71
2022/01/28 06:06:23;;;;;;;5.10;1.40;;;21.50;45.10;;;;;;5084632;28;20044;-71
2022/01/28 06:08:53;;;;;;;5.03;1.60;;;21.50;45.20;;;;;;5068513;28;20043;-71
2022/01/28 06:11:20;;;;;;;6.93;1.80;;;21.50;45.10;;;;;;5085906;28;20069;-72
2022/01/28 06:13:46;;;;;;;4.75;1.48;;;21.40;45.10;;;;;;5085921;28;20048;-71
2022/01/28 06:16:12;;;;;;;4.18;1.27;;;21.50;45.10;;;;;;5084989;28;20056;-71
2022/01/28 06:18:38;;;;;;;4.03;1.40;;;21.50;45.10;;;;;;5072348;28;20110;-71
2022/01/28 06:21:04;;;;;;;6.72;1.58;;;21.50;45.00;;;;;;5075476;28;20044;-71
2022/01/28 06:23:33;;;;;;;3.97;1.30;;;21.40;45.00;;;;;;5082095;28;20056;-70
2022/01/28 06:25:59;;;;;;;5.90;1.50;;;21.50;45.00;;;;;;5084184;28;21292;-71
2022/01/28 06:28:25;;;;;;;5.53;1.50;;;21.50;45.00;;;;;;5086487;28;20044;-71
2022/01/28 06:30:51;;;;;;;5.63;1.25;;;21.50;45.00;;;;;;5072829;28;20099;-71
2022/01/28 06:33:17;;;;;;;8.43;1.52;;;21.50;45.00;;;;;;5094485;28;20079;-71
2022/01/28 06:35:44;;;;;;;5.57;1.20;;;21.50;45.00;;;;;;5085595;28;20070;-71
2022/01/28 06:38:10;;;;;;;7.05;1.77;;;21.50;44.90;;;;;;5087092;28;20081;-71
2022/01/28 06:40:37;;;;;;;5.30;1.30;;;21.50;44.90;;;;;;5087617;28;20079;-71
2022/01/28 06:43:03;;;;;;;5.28;1.42;;;21.50;44.90;;;;;;5084309;28;20082;-70
2022/01/28 06:45:28;;;;;;;5.60;1.60;;;21.50;44.90;;;;;;5085719;28;20059;-71
2022/01/28 06:47:54;;;;;;;6.50;1.52;;;21.50;44.80;;;;;;5084903;28;20044;-71
2022/01/28 06:50:20;;;;;;;4.28;1.42;;;21.50;44.90;;;;;;5087170;28;20124;-71
2022/01/28 06:52:45;;;;;;;4.65;1.10;;;21.50;44.80;;;;;;5081949;28;20048;-71
2022/01/28 06:55:14;;;;;;;4.32;1.48;;;21.50;44.80;;;;;;5084457;28;20392;-71
2022/01/28 06:57:40;;;;;;;6.57;1.60;;;21.50;44.80;;;;;;5120321;27;20404;-71
2022/01/28 07:00:08;;;;;;;7.45;1.58;;;21.60;44.80;;;;;;5118639;27;20040;-72
2022/01/28 07:02:34;;;;;;;4.55;1.40;;;21.50;44.80;;;;;;5069109;28;20052;-70
2022/01/28 07:05:00;;;;;;;4.63;1.15;;;21.60;44.80;;;;;;5086305;28;20071;-70
2022/01/28 07:07:30;;;;;;;4.63;1.42;;;21.50;44.80;;;;;;5095915;28;20036;-69
2022/01/28 07:09:56;;;;;;;5.90;1.50;;;21.50;44.80;;;;;;5071275;28;20090;-70
2022/01/28 07:12:22;;;;;;;4.85;1.63;;;21.60;44.80;;;;;;5085329;28;20498;-70
2022/01/28 07:14:48;;;;;;;5.50;1.60;;;21.60;44.80;;;;;;5118100;27;20063;-70
2022/01/28 07:17:14;;;;;;;6.32;1.55;;;21.50;44.80;;;;;;5084118;28;20036;-70
2022/01/28 07:19:40;;;;;;;3.45;1.35;;;21.50;44.80;;;;;;5084823;28;20461;-70
2022/01/28 07:22:06;;;;;;;6.80;1.50;;;21.50;44.70;;;;;;5082141;28;20069;-71
2022/01/28 07:24:32;;;;;;;3.85;1.27;;;21.60;44.80;;;;;;5083440;28;20032;-70
2022/01/28 07:26:58;;;;;;;5.15;1.63;;;21.50;44.70;;;;;;5090089;28;20134;-70
2022/01/28 07:29:27;;;;;;;6.82;1.48;;;21.50;44.70;;;;;;5124747;27;20036;-70
2022/01/28 07:31:54;;;;;;;5.95;1.30;;;21.50;44.70;;;;;;5086194;28;20512;-70
2022/01/28 07:34:19;;;;;;;6.30;1.55;;;21.50;44.70;;;;;;5095374;28;20425;-70
2022/01/28 07:36:45;;;;;;;5.28;1.45;;;21.50;44.70;;;;;;5087297;28;20036;-68
2022/01/28 07:39:11;;;;;;;4.20;1.38;;;21.50;44.80;;;;;;5098052;28;20032;-70
2022/01/28 07:41:37;;;;;;;5.70;1.75;;;21.50;44.80;;;;;;5100161;27;20048;-68
2022/01/28 07:44:03;;;;;;;5.38;1.70;;;21.50;45.00;;;;;;5092643;28;20040;-70
2022/01/28 07:46:29;;;;;;;7.82;1.75;;;21.50;45.30;;;;;;5086383;28;20069;-69
2022/01/28 07:48:58;;;;;;;8.50;1.90;;;21.50;45.60;;;;;;5091632;28;20085;-68
2022/01/28 07:51:24;;;;;;;4.72;1.58;;;21.50;45.90;;;;;;5084367;28;20094;-68
2022/01/28 07:53:50;;;;;;;8.18;1.90;;;21.50;46.10;;;;;;5093297;28;20686;-69
2022/01/28 07:56:16;;;;;;;9.98;1.55;;;21.50;46.20;;;;;;5090313;28;20092;-71
2022/01/28 07:58:42;;;;;;;9.18;1.70;;;21.50;46.50;;;;;;5098647;28;20044;-69
2022/01/28 08:01:08;;;;;;;7.15;1.80;;;21.60;46.50;;;;;;5097578;28;20131;-70
2022/01/28 08:03:34;;;;;;;10.88;1.90;;;21.60;46.50;;;;;;5100373;28;20093;-69
2022/01/28 08:06:00;;;;;;;8.52;1.83;;;21.60;46.50;;;;;;5122723;27;20124;-68
2022/01/28 08:08:25;;;;;;;9.25;1.90;;;21.60;46.50;;;;;;5099732;28;20148;-68
2022/01/28 08:10:51;;;;;;;7.05;1.73;;;21.60;46.50;;;;;;5092412;28;20074;-69
2022/01/28 08:13:17;;;;;;;9.98;1.80;;;21.60;46.60;;;;;;5095995;28;20165;-66
2022/01/28 08:15:43;;;;;;;6.30;1.80;;;21.60;46.50;;;;;;5091568;28;20428;-69
2022/01/28 08:18:10;;;;;;;8.25;1.90;;;21.60;46.60;;;;;;5073293;28;20039;-69
2022/01/28 08:20:36;;;;;;;9.95;2.47;;;21.60;46.60;;;;;;5125235;27;20035;-71
2022/01/28 08:23:03;;;;;;;8.40;1.70;;;21.60;46.50;;;;;;5113337;27;20047;-70
2022/01/28 08:25:32;;;;;;;8.27;1.70;;;21.60;46.50;;;;;;5123335;27;20671;-70
2022/01/28 08:27:58;;;;;;;9.15;2.10;;;21.60;46.60;;;;;;5085547;28;20048;-70
2022/01/28 08:30:25;;;;;;;8.57;1.45;;;21.60;46.70;;;;;;5097989;28;20051;-70
2022/01/28 08:32:52;;;;;;;6.77;1.60;;;21.60;46.70;;;;;;5094500;28;20563;-69
2022/01/28 08:35:24;;;;;;;5.72;2.00;;;21.60;46.60;;;;;;5085946;28;20115;-68
2022/01/28 08:37:50;;;;;;;7.75;1.83;;;21.60;46.50;;;;;;5090263;28;20067;-69
2022/01/28 08:40:16;;;;;;;16.98;1.90;;;21.60;46.40;;;;;;5105080;28;20062;-71
2022/01/28 08:42:42;;;;;;;9.07;1.85;;;21.70;46.50;;;;;;5085055;28;20648;-71
2022/01/28 08:45:08;;;;;;;6.22;1.73;;;21.70;46.40;;;;;;5126742;27;20088;-70
2022/01/28 08:47:34;;;;;;;9.13;1.92;;;21.70;46.30;;;;;;5086656;28;20040;-71
2022/01/28 08:49:59;;;;;;;6.97;1.63;;;21.80;46.50;;;;;;5068911;28;20040;-71
2022/01/28 08:52:26;;;;;;;7.38;1.67;;;21.80;46.60;;;;;;5085886;28;20044;-71
2022/01/28 08:54:52;;;;;;;6.82;1.77;;;21.80;46.60;;;;;;5119157;27;20479;-72
2022/01/28 08:57:17;;;;;;;8.45;1.65;;;21.80;46.60;;;;;;5116171;27;20371;-71
2022/01/28 08:59:44;;;;;;;7.85;1.73;;;21.90;46.30;;;;;;5083587;28;20060;-72
2022/01/28 09:02:10;;;;;;;6.93;1.70;;;21.90;46.20;;;;;;5091566;28;20066;-71
2022/01/28 09:04:36;;;;;;;8.18;1.70;;;21.90;46.00;;;;;;5090676;28;20491;-71
2022/01/28 09:07:01;;;;;;;8.55;1.90;;;21.90;45.90;;;;;;5119876;27;20472;-71
2022/01/28 09:09:28;;;;;;;6.82;1.88;;;22.00;45.80;;;;;;5090402;28;20043;-71
2022/01/28 09:12:06;;;;;;;11.18;2.17;;;22.00;45.70;;;;;;5090713;28;20039;-68
2022/01/28 09:14:33;;;;;;;8.85;2.13;;;22.00;45.70;;;;;;5085749;28;20068;-69
2022/01/28 09:16:58;;;;;;;6.35;1.60;;;21.90;45.90;;;;;;5086124;28;20494;-69
2022/01/28 09:19:24;;;;;;;9.82;2.03;;;22.00;45.60;;;;;;5086022;28;20040;-70
2022/01/28 09:21:50;;;;;;;7.68;2.00;;;22.00;45.60;;;;;;5086259;28;20040;-69
2022/01/28 09:24:16;;;;;;;8.85;1.90;;;22.00;46.30;;;;;;5117500;27;20151;-69
2022/01/28 09:26:42;;;;;;;6.35;2.15;;;22.00;46.30;;;;;;5080542;28;20143;-70
2022/01/28 09:29:07;;;;;;;8.10;2.00;;;22.00;45.50;;;;;;5084397;28;20090;-70
2022/01/28 09:31:33;;;;;;;11.35;1.95;;;22.00;45.50;;;;;;5086111;28;20039;-73
2022/01/28 09:33:59;;;;;;;11.77;2.20;;;22.00;45.70;;;;;;5087189;28;20044;-73
2022/01/28 09:36:24;;;;;;;10.52;2.10;;;22.00;45.80;;;;;;5092723;28;20040;-71
2022/01/28 09:38:50;;;;;;;8.35;1.90;;;22.00;45.90;;;;;;5084329;28;20528;-70
2022/01/28 09:41:16;;;;;;;7.97;2.10;;;22.10;46.80;;;;;;5067143;28;20043;-70
2022/01/28 09:43:44;;;;;;;8.45;1.98;;;22.00;46.00;;;;;;5084651;28;20043;-70
2022/01/28 09:46:10;;;;;;;10.70;2.28;;;22.10;46.20;;;;;;5085215;28;20488;-70
2022/01/28 09:48:36;;;;;;;11.00;2.30;;;22.10;46.20;;;;;;5083454;28;20132;-69
2022/01/28 09:51:02;;;;;;;8.55;2.08;;;22.10;46.30;;;;;;5082932;28;20131;-71
2022/01/28 09:53:28;;;;;;;8.43;1.95;;;22.10;46.40;;;;;;5116777;27;20047;-70
2022/01/28 09:55:54;;;;;;;13.88;1.95;;;22.10;46.40;;;;;;5085400;28;20100;-70
2022/01/28 09:58:20;;;;;;;9.93;2.28;;;22.10;46.50;;;;;;5085006;28;20471;-70
2022/01/28 10:00:46;;;;;;;8.68;2.13;;;22.10;46.60;;;;;;5094308;28;20040;-70
2022/01/28 10:03:13;;;;;;;14.80;2.00;;;22.10;46.70;;;;;;5085102;28;20082;-70
2022/01/28 10:05:51;;;;;;;7.90;2.33;;;22.20;46.80;;;;;;5101153;27;20105;-70
2022/01/28 10:08:20;;;;;;;8.20;2.10;;;22.10;46.80;;;;;;5085746;28;20535;-70
2022/01/28 10:11:16;;;;;;;11.77;2.20;;;22.10;46.80;;;;;;5101035;28;20506;-73
2022/01/28 10:13:53;;;;;;;9.15;2.25;;;22.10;46.90;;;;;;5081972;28;20051;-73
2022/01/28 10:16:30;;;;;;;8.73;2.40;;;22.10;47.00;;;;;;5083098;28;20040;-71
2022/01/28 10:18:57;;;;;;;9.07;2.10;;;22.10;47.00;;;;;;5082613;28;20091;-71
2022/01/28 10:21:30;;;;;;;8.63;2.42;;;22.10;47.00;;;;;;5117791;27;20056;-70
2022/01/28 10:24:12;;;;;;;15.07;2.05;;;22.10;47.00;;;;;;5115084;27;20213;-71
2022/01/28 10:26:53;;;;;;;9.35;2.17;;;22.10;47.00;;;;;;5068256;28;20048;-71
2022/01/28 10:29:28;;;;;;;12.18;2.55;;;22.10;47.00;;;;;;5083398;28;20436;-72
2022/01/28 10:31:58;;;;;;;7.78;2.20;;;22.10;47.00;;;;;;5081547;28;20043;-71
2022/01/28 10:34:36;;;;;;;8.35;1.90;;;22.10;46.90;;;;;;5084138;28;20052;-71
2022/01/28 10:37:19;;;;;;;8.65;2.45;;;22.10;47.00;;;;;;5115909;27;20048;-71
2022/01/28 10:39:53;;;;;;;13.07;1.83;;;22.10;46.90;;;;;;5097552;28;20036;-74
2022/01/28 10:42:34;;;;;;;10.25;1.90;;;22.10;47.00;;;;;;5117031;27;20079;-69
2022/01/28 10:45:03;;;;;;;9.15;2.30;;;22.10;47.00;;;;;;5099134;27;20032;-70
2022/01/28 10:47:41;;;;;;;9.10;2.42;;;22.10;46.90;;;;;;5083977;28;20036;-71
2022/01/28 10:50:33;;;;;;;9.60;2.10;;;22.10;46.80;;;;;;5116658;27;20074;-71
2022/01/28 10:53:03;;;;;;;10.15;2.25;;;22.10;46.80;;;;;;5068328;28;20040;-71
2022/01/28 10:55:30;;;;;;;12.35;2.03;;;22.10;47.60;;;;;;5087057;28;20076;-72
2022/01/28 10:58:11;;;;;;;9.98;1.90;;;22.00;46.70;;;;;;5085048;28;20039;-71
2022/01/28 11:00:39;;;;;;;11.77;2.33;;;22.10;46.70;;;;;;5085578;28;20055;-72
2022/01/28 11:03:09;;;;;;;11.65;2.08;;;22.10;46.70;;;;;;5087087;28;20037;-71
2022/01/28 11:05:35;;;;;;;8.88;2.20;;;22.10;46.70;;;;;;5086152;28;20094;-71
2022/01/28 11:08:03;;;;;;;8.82;1.92;;;22.10;46.70;;;;;;5084464;28;20044;-71
2022/01/28 11:10:29;;;;;;;9.63;2.75;;;22.10;46.70;;;;;;5119004;27;20044;-70
2022/01/28 11:12:58;;;;;;;9.30;2.47;;;22.10;46.60;;;;;;5087458;28;20456;-70
2022/01/28 11:15:24;;;;;;;9.77;2.08;;;22.10;46.60;;;;;;5101453;28;20052;-72
2022/01/28 11:17:51;;;;;;;11.13;2.10;;;22.10;46.60;;;;;;5087118;28;20047;-71
2022/01/28 11:20:28;;;;;;;8.27;1.87;;;22.10;46.60;;;;;;5080898;28;20032;-71
2022/01/28 11:23:23;;;;;;;9.75;2.30;;;22.10;46.60;;;;;;5085737;28;20844;-72
2022/01/28 11:26:16;;;;;;;9.20;1.92;;;22.10;46.50;;;;;;5085808;28;20043;-72
2022/01/28 11:28:55;;;;;;;7.32;1.85;;;22.10;46.40;;;;;;5083768;28;20089;-71
2022/01/28 11:31:42;;;;;;;8.77;2.40;;;22.10;46.40;;;;;;5085628;28;20052;-72
2022/01/28 11:34:17;;;;;;;9.48;2.13;;;22.10;46.30;;;;;;5068296;28;20123;-71
2022/01/28 11:36:43;;;;;;;8.80;2.30;;;22.10;46.30;;;;;;5084570;28;20055;-72
2022/01/28 11:39:33;;;;;;;6.68;2.00;;;22.10;46.30;;;;;;5085391;28;20032;-72
2022/01/28 11:42:00;;;;;;;10.95;2.00;;;22.10;46.20;;;;;;5118888;27;20059;-70
2022/01/28 11:44:51;;;;;;;8.17;2.20;;;22.10;46.30;;;;;;5084968;28;20455;-72
2022/01/28 11:47:31;;;;;;;9.80;2.03;;;22.10;46.20;;;;;;5079646;28;20044;-72
2022/01/28 11:50:08;;;;;;;7.40;1.90;;;22.10;46.20;;;;;;5080064;28;20510;-72
2022/01/28 11:52:51;;;;;;;9.05;2.10;;;22.00;46.10;;;;;;5076161;28;20120;-71
2022/01/28 11:55:28;;;;;;;10.48;2.28;;;22.00;46.30;;;;;;5064661;28;20084;-72
2022/01/28 11:58:08;;;;;;;9.23;2.33;;;22.10;46.20;;;;;;5081399;28;20052;-72
2022/01/28 12:00:35;;;;;;;8.50;2.08;;;22.10;46.10;;;;;;5065967;28;20040;-72
2022/01/28 12:03:02;;;;;;;12.40;2.40;;;22.00;46.00;;;;;;5065840;28;20041;-72
2022/01/28 12:05:31;;;;;;;6.60;1.90;;;22.00;46.00;;;;;;5117919;28;20083;-73
2022/01/28 12:08:00;;;;;;;;;;;22.00;46.00;;;;;;5117677;28;20514;-72
2022/01/28 12:10:27;;;;;;;12.85;2.88;;;22.00;45.90;;;;;;5065640;28;20003;-71
2022/01/28 12:13:13;;;;;;;10.83;2.33;;;22.10;45.90;;;;;;5064772;28;20044;-72
2022/01/28 12:15:59;;;;;;;9.23;2.10;;;22.10;45.80;;;;;;5062762;28;20067;-71
2022/01/28 12:18:26;;;;;;;9.10;2.47;;;22.10;45.50;;;;;;5096621;28;20063;-73
2022/01/28 12:20:53;;;;;;;7.53;1.83;;;22.10;45.50;;;;;;5081390;28;20032;-71
2022/01/28 12:23:18;;;;;;;10.55;2.22;;;22.20;45.40;;;;;;5060740;28;20058;-71
2022/01/28 12:25:44;;;;;;;9.50;2.08;;;22.20;45.30;;;;;;5089123;28;20499;-70
2022/01/28 12:28:13;;;;;;;10.25;1.83;;;22.20;45.40;;;;;;5124161;27;20136;-70
2022/01/28 12:30:41;;;;;;;7.40;2.00;;;22.30;45.70;;;;;;5077106;28;20044;-72
2022/01/28 12:33:09;;;;;;;8.80;2.25;;;22.30;46.00;;;;;;5095678;28;20529;-70
2022/01/28 12:35:40;;;;;;;10.35;2.28;;;22.40;46.30;;;;;;5097829;28;20907;-71
2022/01/28 12:38:07;;;;;;;7.18;2.28;;;22.50;46.30;;;;;;5120290;27;20589;-73
2022/01/28 12:40:36;;;;;;;9.45;2.08;;;22.60;47.10;;;;;;5087416;28;21534;-71
2022/01/28 12:43:06;;;;;;;9.07;2.00;;;22.60;46.20;;;;;;5091658;28;21503;-72
2022/01/28 12:45:32;;;;;;;9.32;2.05;;;22.70;46.10;;;;;;5082687;28;20036;-71
2022/01/28 12:47:58;;;;;;;8.35;1.85;;;22.70;46.10;;;;;;5086415;28;20050;-73
2022/01/28 12:50:24;;;;;;;10.68;2.35;;;22.70;46.10;;;;;;5072939;28;20142;-72
2022/01/28 12:52:50;;;;;;;11.55;2.40;;;22.60;46.10;;;;;;5109841;28;20433;-73
2022/01/28 12:55:16;;;;;;;8.43;2.20;;;22.60;46.20;;;;;;5105579;28;20116;-73
2022/01/28 12:57:43;;;;;;;7.22;2.10;;;22.60;46.30;;;;;;5088753;28;20567;-73
2022/01/28 13:00:12;;;;;;;8.60;2.17;;;22.60;46.30;;;;;;5119339;27;20105;-71
2022/01/28 13:02:40;;;;;;;10.38;2.17;;;22.50;46.30;;;;;;5085049;28;20559;-72
2022/01/28 13:10:24;;;;;;;13.30;2.40;;;22.50;46.10;;;;;;5089290;28;20071;-72
2022/01/28 13:12:50;;;;;;;9.43;2.13;;;22.50;46.10;;;;;;5120332;27;20079;-73
2022/01/28 13:15:17;;;;;;;9.65;2.30;;;22.50;45.90;;;;;;5089254;28;20477;-72
2022/01/28 13:17:57;;;;;;;9.68;2.10;;;22.50;45.80;;;;;;5086647;28;20040;-69
2022/01/28 13:20:24;;;;;;;9.55;2.42;;;22.40;45.70;;;;;;5086624;28;20104;-69
2022/01/28 13:22:52;;;;;;;8.52;2.15;;;22.40;45.80;;;;;;5086494;28;20486;-69
2022/01/28 13:25:23;;;;;;;9.23;2.15;;;22.40;45.90;;;;;;5088138;28;20055;-69
2022/01/28 13:27:54;;;;;;;12.38;2.40;;;22.40;45.90;;;;;;5086475;28;20040;-70
2022/01/28 13:30:20;;;;;;;8.38;1.95;;;22.30;45.80;;;;;;5082495;28;20076;-72
2022/01/28 13:32:49;;;;;;;8.18;1.85;;;22.30;45.90;;;;;;5128318;27;20082;-74
2022/01/28 13:35:16;;;;;;;7.18;1.98;;;22.20;45.90;;;;;;5130637;27;20046;-74
2022/01/28 13:37:49;;;;;;;13.43;2.42;;;22.20;45.90;;;;;;5133721;27;20048;-74
2022/01/28 13:40:18;;;;;;;9.02;2.42;;;22.10;45.80;;;;;;5068760;28;20048;-74
2022/01/28 13:42:59;;;;;;;10.40;2.33;;;22.10;45.70;;;;;;5083999;28;20136;-72
2022/01/28 13:45:58;;;;;;;7.85;2.40;;;22.10;45.70;;;;;;5087358;28;20071;-71
2022/01/28 13:48:34;;;;;;;11.75;2.88;;;22.10;46.10;;;;;;5083055;28;20123;-71
2022/01/28 13:51:07;;;;;;;13.68;2.90;;;22.10;46.20;;;;;;5084030;28;20048;-69
2022/01/28 13:56:31;;;;;;;;;;;22.10;46.70;;;;;;5081275;28;20452;-72
2022/01/28 13:58:58;;;;;;;12.77;3.47;;;22.10;46.70;;;;;;5069131;28;19920;-71
2022/01/28 14:01:26;;;;;;;13.63;3.85;;;22.10;46.60;;;;;;5086287;28;20036;-73
2022/01/28 14:03:54;;;;;;;10.10;3.10;;;22.10;46.70;;;;;;5084183;28;20102;-72
2022/01/28 14:06:28;;;;;;;12.20;3.60;;;22.10;46.90;;;;;;5119337;27;20052;-72
2022/01/28 14:09:11;;;;;;;10.85;3.10;;;22.10;47.10;;;;;;5115006;27;20036;-71
2022/01/28 14:11:47;;;;;;;13.10;3.63;;;22.10;47.20;;;;;;5086245;28;20036;-73
2022/01/28 14:14:16;;;;;;;9.80;3.55;;;22.10;47.20;;;;;;5085489;28;20938;-71
2022/01/28 14:16:50;;;;;;;13.75;3.53;;;22.00;47.30;;;;;;5083837;28;20491;-71
2022/01/28 14:19:16;;;;;;;14.70;3.60;;;22.00;47.40;;;;;;5096632;28;20444;-72
2022/01/28 14:21:43;;;;;;;11.25;3.50;;;22.00;47.50;;;;;;5091289;28;20044;-70